createdAt,value
2023-01-13T00:02:28.537Z,10.66
2023-01-13T00:05:29.901Z,10.66
2023-01-13T00:08:33.911Z,10.48
2023-01-13T00:11:35.276Z,10.48
2023-01-13T00:14:37.867Z,10.38
2023-01-13T00:17:40.519Z,10.32
2023-01-13T00:20:41.826Z,10.45
2023-01-13T00:23:45.888Z,10.46
2023-01-13T00:26:47.424Z,10.48
2023-01-13T00:29:50.353Z,10.67
2023-01-13T00:32:52.391Z,10.52
2023-01-13T00:35:58.393Z,10.47
2023-01-13T00:39:01.795Z,10.41
2023-01-13T00:42:21.330Z,10.43
2023-01-13T00:45:23.945Z,10.34
2023-01-13T00:48:27.022Z,10.31
2023-01-13T00:51:29.636Z,10.33
2023-01-13T00:54:32.928Z,10.43
2023-01-13T00:57:35.648Z,10.38
2023-01-13T01:00:37.032Z,10.53
2023-01-13T01:03:39.731Z,10.57
2023-01-13T01:06:42.332Z,10.37
2023-01-13T01:09:44.385Z,10.41
2023-01-13T01:12:46.969Z,10.41
2023-01-13T01:15:50.156Z,10.55
2023-01-13T01:18:54.445Z,10.42
2023-01-13T01:21:55.850Z,10.65
2023-01-13T01:24:59.411Z,10.51
2023-01-13T01:28:00.788Z,10.54
2023-01-13T01:31:07.338Z,10.57
2023-01-13T01:34:08.753Z,10.75
2023-01-13T01:37:11.349Z,10.70
2023-01-13T01:44:03.061Z,10.57
2023-01-13T01:47:05.882Z,10.81
2023-01-13T01:50:10.702Z,10.62
2023-01-13T01:53:18.264Z,10.53
2023-01-13T01:56:22.118Z,10.75
2023-01-13T01:59:25.854Z,10.73
2023-01-13T02:02:29.199Z,10.65
2023-01-13T02:05:30.572Z,10.73
2023-01-13T02:08:33.989Z,10.59
2023-01-13T02:11:56.115Z,10.57
2023-01-13T02:15:00.662Z,10.64
2023-01-13T02:18:41.645Z,10.57
2023-01-13T02:22:18.828Z,10.58
2023-01-13T02:25:50.294Z,10.63
2023-01-13T02:29:32.629Z,10.67
2023-01-13T02:32:48.130Z,10.51
2023-01-13T02:35:56.779Z,10.71
2023-01-13T02:39:14.992Z,10.65
2023-01-13T02:42:46.226Z,10.47
2023-01-13T02:45:52.346Z,10.64
2023-01-13T02:48:57.947Z,10.66
2023-01-13T02:52:07.560Z,10.57
2023-01-13T02:55:13.479Z,10.49
2023-01-13T02:58:19.017Z,10.52
2023-01-13T03:01:22.358Z,10.42
2023-01-13T03:08:23.101Z,10.47
2023-01-13T03:11:31.907Z,10.59
2023-01-13T03:14:40.064Z,10.51
2023-01-13T03:17:50.689Z,10.47
2023-01-13T03:21:02.744Z,10.54
2023-01-13T03:24:10.251Z,10.45
2023-01-13T03:27:20.479Z,10.51
2023-01-13T03:30:27.034Z,10.50
2023-01-13T03:33:36.572Z,10.49
2023-01-13T03:40:08.886Z,10.52
2023-01-13T03:43:35.141Z,10.87
2023-01-13T03:46:45.270Z,10.66
2023-01-13T03:49:55.311Z,10.68
2023-01-13T03:53:03.770Z,10.71
2023-01-13T03:56:09.599Z,10.54
2023-01-13T04:02:47.468Z,10.60
2023-01-13T04:05:54.023Z,10.70
2023-01-13T04:09:07.428Z,10.67
2023-01-13T04:12:13.955Z,10.57
2023-01-13T04:15:17.495Z,10.66
2023-01-13T04:18:21.750Z,10.62
2023-01-13T04:21:24.315Z,10.62
2023-01-13T04:24:26.587Z,10.73
2023-01-13T04:27:29.107Z,10.55
2023-01-13T04:30:32.278Z,10.48
2023-01-13T04:36:54.466Z,10.47
2023-01-13T04:39:57.594Z,10.41
2023-01-13T04:42:58.943Z,10.53
2023-01-13T04:46:00.720Z,10.39
2023-01-13T04:49:02.077Z,10.27
2023-01-13T04:52:06.239Z,10.28
2023-01-13T04:55:10.347Z,10.25
2023-01-13T04:58:11.906Z,10.33
2023-01-13T05:01:14.646Z,10.31
2023-01-13T05:04:16.363Z,10.32
2023-01-13T05:07:24.774Z,10.49
2023-01-13T05:10:27.775Z,10.41
2023-01-13T05:13:58.888Z,10.51
2023-01-13T05:17:01.585Z,10.45
2023-01-13T05:20:03.294Z,10.46
2023-01-13T05:23:23.644Z,10.45
2023-01-13T05:26:26.244Z,10.46
2023-01-13T05:29:27.532Z,10.39
2023-01-13T05:32:30.077Z,10.45
2023-01-13T05:35:31.425Z,10.18
2023-01-13T05:38:33.028Z,10.23
2023-01-13T05:41:54.015Z,10.10
2023-01-13T05:44:55.663Z,9.87
2023-01-13T05:47:57.321Z,9.72
2023-01-13T05:50:59.255Z,9.69
2023-01-13T05:54:01.886Z,9.53
2023-01-13T05:57:05.485Z,9.66
2023-01-13T06:00:08.072Z,9.52
2023-01-13T06:03:11.344Z,9.61
2023-01-13T06:06:12.870Z,9.61
2023-01-13T06:09:16.520Z,9.63
2023-01-13T06:12:18.943Z,9.70
2023-01-13T06:15:20.922Z,9.78
2023-01-13T06:18:22.538Z,9.70
2023-01-13T06:21:23.897Z,9.82
2023-01-13T06:24:26.487Z,9.87
2023-01-13T06:27:29.294Z,9.73
2023-01-13T06:30:37.726Z,9.70
2023-01-13T06:33:46.212Z,9.69
2023-01-13T06:36:54.971Z,9.67
2023-01-13T06:40:00.977Z,9.72
2023-01-13T06:43:16.924Z,9.72
2023-01-13T06:46:20.157Z,9.72
2023-01-13T06:49:21.810Z,9.71
2023-01-13T06:52:24.940Z,9.75
2023-01-13T06:55:26.274Z,9.68
2023-01-13T06:58:28.258Z,9.69
2023-01-13T07:01:30.050Z,9.65
2023-01-13T07:04:31.477Z,9.70
2023-01-13T07:07:33.187Z,9.72
2023-01-13T07:10:35.790Z,9.72
2023-01-13T07:17:28.968Z,9.77
2023-01-13T07:20:31.974Z,9.75
2023-01-13T07:23:35.955Z,9.77
2023-01-13T07:26:38.643Z,9.74
2023-01-13T07:29:40.825Z,9.77
2023-01-13T07:32:42.492Z,9.80
2023-01-13T07:35:45.223Z,9.82
2023-01-13T07:38:46.626Z,9.81
2023-01-13T07:42:07.599Z,9.82
2023-01-13T07:45:12.391Z,9.79
2023-01-13T07:48:15.111Z,9.78
2023-01-13T07:51:16.625Z,9.79
2023-01-13T07:54:25.545Z,9.86
2023-01-13T07:57:34.546Z,9.88
2023-01-13T08:00:38.980Z,9.93
2023-01-13T08:03:41.922Z,9.99
2023-01-13T08:06:45.151Z,10.04
2023-01-13T08:09:47.012Z,9.97
2023-01-13T08:13:18.392Z,9.99
2023-01-13T08:16:22.196Z,10.15
2023-01-13T08:19:25.563Z,10.13
2023-01-13T08:22:30.441Z,10.17
2023-01-13T08:25:36.800Z,10.17
2023-01-13T08:28:49.199Z,10.18
2023-01-13T08:31:52.363Z,10.07
2023-01-13T08:34:57.456Z,10.17
2023-01-13T08:37:59.364Z,10.15
2023-01-13T08:41:12.463Z,10.33
2023-01-13T08:44:15.356Z,10.15
2023-01-13T08:47:18.766Z,10.14
2023-01-13T08:50:20.625Z,10.08
2023-01-13T08:53:22.481Z,10.03
2023-01-13T08:56:25.536Z,10.10
2023-01-13T08:59:27.086Z,10.10
2023-01-13T09:02:31.528Z,10.05
2023-01-13T09:05:35.225Z,10.30
2023-01-13T09:08:38.109Z,10.23
2023-01-13T09:12:00.872Z,10.30
2023-01-13T09:15:12.618Z,10.11
2023-01-13T09:18:15.049Z,10.00
2023-01-13T09:21:24.488Z,10.09
2023-01-13T09:24:26.719Z,10.16
2023-01-13T09:27:30.129Z,10.23
2023-01-13T09:30:33.269Z,10.24
2023-01-13T09:33:56.061Z,10.20
2023-01-13T09:36:57.587Z,10.26
2023-01-13T09:40:00.476Z,10.33
2023-01-13T09:43:30.827Z,10.40
2023-01-13T09:46:47.674Z,10.41
2023-01-13T09:49:50.410Z,10.61
2023-01-13T09:52:54.640Z,10.95
2023-01-13T09:55:56.211Z,11.18
2023-01-13T09:58:59.167Z,11.60
2023-01-13T10:02:14.222Z,11.68
2023-01-13T10:05:27.886Z,11.75
2023-01-13T10:08:33.657Z,11.52
2023-01-13T10:12:00.361Z,11.68
2023-01-13T10:15:03.094Z,11.98
2023-01-13T10:18:16.852Z,12.13
2023-01-13T10:21:33.205Z,11.85
2023-01-13T10:24:53.297Z,11.78
2023-01-13T10:27:56.363Z,11.55
2023-01-13T10:30:59.572Z,11.47
2023-01-13T10:34:03.528Z,11.27
2023-01-13T10:37:07.203Z,11.12
2023-01-13T10:40:19.336Z,11.01
2023-01-13T10:43:21.297Z,10.88
2023-01-13T10:46:23.074Z,10.88
2023-01-13T10:49:28.896Z,10.80
2023-01-13T10:52:34.352Z,10.78
2023-01-13T10:55:38.592Z,10.75
2023-01-13T10:58:40.388Z,10.86
2023-01-13T11:01:55.287Z,10.81
2023-01-13T11:05:03.309Z,10.87
2023-01-13T11:08:17.845Z,11.15
2023-01-13T11:11:36.571Z,11.67
2023-01-13T11:14:42.644Z,12.31
2023-01-13T11:17:50.567Z,12.73
2023-01-13T11:20:56.121Z,13.02
2023-01-13T11:24:07.256Z,13.00
2023-01-13T11:27:18.521Z,13.11
2023-01-13T11:30:34.405Z,12.97
2023-01-13T11:37:10.992Z,13.17
2023-01-13T11:40:18.503Z,13.26
2023-01-13T11:43:29.023Z,13.11
2023-01-13T11:46:31.925Z,13.08
2023-01-13T11:49:33.814Z,13.16
2023-01-13T11:53:00.853Z,13.24
2023-01-13T11:56:19.320Z,12.75
2023-01-13T11:59:45.088Z,12.50
2023-01-13T12:03:05.652Z,12.66
2023-01-13T12:06:25.340Z,12.86
2023-01-13T12:09:43.812Z,12.81
2023-01-13T12:13:01.341Z,12.60
2023-01-13T12:16:25.036Z,12.39
2023-01-13T12:19:29.454Z,12.47
2023-01-13T12:22:36.845Z,12.38
2023-01-13T12:25:53.999Z,12.07
2023-01-13T12:29:01.941Z,12.08
2023-01-13T12:32:07.541Z,12.32
2023-01-13T12:35:31.491Z,12.20
2023-01-13T12:38:37.960Z,12.29
2023-01-13T12:42:05.013Z,11.93
2023-01-13T12:45:22.674Z,11.98
2023-01-13T12:48:49.564Z,11.81
2023-01-13T12:52:28.233Z,11.99
2023-01-13T12:55:33.001Z,11.84
2023-01-13T13:02:32.476Z,11.76
2023-01-13T13:05:48.145Z,11.49
2023-01-13T13:09:03.941Z,11.34
2023-01-13T13:13:09.361Z,11.39
2023-01-13T13:16:52.349Z,11.36
2023-01-13T13:20:34.361Z,11.18
2023-01-13T13:23:55.376Z,11.30
2023-01-13T13:26:57.050Z,11.19
2023-01-13T13:30:01.335Z,11.11
2023-01-13T13:33:16.378Z,11.27
2023-01-13T13:36:44.929Z,11.12
2023-01-13T13:40:04.651Z,11.23
2023-01-13T13:43:30.679Z,11.34
2023-01-13T13:46:50.545Z,11.25
2023-01-13T13:49:54.958Z,11.29
2023-01-13T13:53:04.562Z,11.23
2023-01-13T13:56:20.219Z,11.22
2023-01-13T13:59:25.028Z,11.27
2023-01-13T14:02:33.719Z,11.13
2023-01-13T14:05:38.774Z,11.08
2023-01-13T14:08:49.678Z,11.08
2023-01-13T14:12:00.324Z,10.80
2023-01-13T14:15:03.605Z,10.82
2023-01-13T14:18:12.026Z,10.77
2023-01-13T14:21:21.372Z,10.89
2023-01-13T14:24:24.322Z,10.88
2023-01-13T14:27:28.054Z,10.70
2023-01-13T14:30:29.523Z,10.90
2023-01-13T14:36:59.222Z,10.80
2023-01-13T14:40:03.180Z,10.78
2023-01-13T14:43:12.694Z,10.61
2023-01-13T14:46:16.828Z,10.74
2023-01-13T14:49:25.242Z,10.66
2023-01-13T14:52:29.453Z,10.62
2023-01-13T14:55:33.173Z,10.68
2023-01-13T14:58:34.715Z,10.62
2023-01-13T15:01:38.628Z,10.61
2023-01-13T15:04:40.950Z,10.69
2023-01-13T15:07:50.059Z,10.69
2023-01-13T15:10:54.897Z,10.66
2023-01-13T15:14:01.726Z,10.49
2023-01-13T15:17:17.765Z,10.43
2023-01-13T15:20:21.327Z,10.62
2023-01-13T15:23:23.020Z,10.47
2023-01-13T15:26:27.300Z,10.47
2023-01-13T15:29:29.162Z,10.51
2023-01-13T15:32:30.477Z,10.47
2023-01-13T15:35:42.400Z,10.46
2023-01-13T15:38:43.734Z,10.40
2023-01-13T15:42:03.898Z,10.40
2023-01-13T15:45:24.336Z,10.37
2023-01-13T15:48:28.445Z,10.45
2023-01-13T15:51:30.995Z,10.33
2023-01-13T15:54:32.802Z,10.44
2023-01-13T15:57:38.876Z,10.48
2023-01-13T16:00:41.010Z,10.38
2023-01-13T16:03:43.744Z,10.32
2023-01-13T16:06:47.889Z,10.44
2023-01-13T16:09:49.377Z,10.28
2023-01-13T16:12:53.239Z,10.22
2023-01-13T16:15:56.670Z,10.40
2023-01-13T16:18:59.586Z,10.19
2023-01-13T16:22:00.904Z,10.09
2023-01-13T16:25:03.570Z,10.10
2023-01-13T16:28:07.499Z,10.15
2023-01-13T16:31:18.086Z,10.07
2023-01-13T16:37:40.504Z,9.97
2023-01-13T16:40:43.699Z,10.03
2023-01-13T16:43:46.267Z,10.04
2023-01-13T16:46:47.970Z,10.08
2023-01-13T16:49:49.645Z,9.98
2023-01-13T16:52:50.912Z,9.94
2023-01-13T16:55:52.371Z,10.01
2023-01-13T16:58:57.210Z,9.83
2023-01-13T17:01:58.689Z,9.99
2023-01-13T17:05:01.267Z,9.87
2023-01-13T17:08:02.685Z,9.73
2023-01-13T17:11:05.576Z,9.71
2023-01-13T17:14:19.199Z,9.82
2023-01-13T17:17:24.988Z,9.82
2023-01-13T17:20:27.772Z,9.82
2023-01-13T17:23:30.694Z,9.78
2023-01-13T17:26:37.609Z,9.72
2023-01-13T17:29:40.981Z,9.63
2023-01-13T17:32:42.289Z,9.73
2023-01-13T17:35:46.492Z,9.65
2023-01-13T17:38:48.095Z,9.57
2023-01-13T17:41:51.585Z,9.53
2023-01-13T17:44:53.694Z,9.45
2023-01-13T17:47:58.428Z,9.42
2023-01-13T17:51:01.150Z,9.59
2023-01-13T17:54:02.471Z,9.64
2023-01-13T17:57:05.104Z,9.69
2023-01-13T18:00:08.674Z,9.50
2023-01-13T18:03:11.792Z,9.30
2023-01-13T18:06:15.963Z,9.34
2023-01-13T18:09:18.766Z,9.44
2023-01-13T18:12:21.356Z,9.42
2023-01-13T18:15:23.290Z,9.47
2023-01-13T18:18:24.634Z,9.42
2023-01-13T18:21:44.756Z,9.39
2023-01-13T18:25:05.469Z,9.43
2023-01-13T18:28:08.038Z,9.55
2023-01-13T18:31:10.127Z,9.40
2023-01-13T18:34:13.192Z,9.43
2023-01-13T18:37:16.209Z,9.51
2023-01-13T18:40:19.000Z,9.28
2023-01-13T18:43:21.642Z,9.50
2023-01-13T18:46:23.811Z,9.48
2023-01-13T18:49:26.552Z,9.49
2023-01-13T18:52:28.491Z,9.61
2023-01-13T18:55:31.094Z,9.54
2023-01-13T18:58:32.664Z,9.51
2023-01-13T19:01:38.339Z,9.48
2023-01-13T19:04:41.353Z,9.55
2023-01-13T19:07:51.021Z,9.55
2023-01-13T19:10:52.383Z,9.39
2023-01-13T19:13:55.259Z,9.37
2023-01-13T19:16:58.553Z,9.45
2023-01-13T19:20:01.255Z,9.53
2023-01-13T19:23:02.842Z,9.43
2023-01-13T19:26:07.353Z,9.36
2023-01-13T19:29:08.803Z,9.58
2023-01-13T19:32:12.911Z,9.51
2023-01-13T19:35:18.258Z,9.54
2023-01-13T19:38:19.892Z,9.50
2023-01-13T19:41:40.744Z,9.56
2023-01-13T19:45:00.112Z,9.62
2023-01-13T19:48:05.738Z,9.60
2023-01-13T19:51:07.373Z,9.52
2023-01-13T19:54:09.947Z,9.42
2023-01-13T19:57:11.816Z,9.41
2023-01-13T20:00:21.029Z,9.49
2023-01-13T20:03:26.703Z,9.45
2023-01-13T20:06:29.410Z,9.42
2023-01-13T20:09:31.907Z,9.43
2023-01-13T20:12:34.452Z,9.37
2023-01-13T20:15:37.346Z,9.13
2023-01-13T20:18:41.614Z,9.22
2023-01-13T20:21:43.464Z,9.25
2023-01-13T20:24:46.447Z,9.24
2023-01-13T20:27:48.159Z,9.39
2023-01-13T20:30:51.001Z,9.28
2023-01-13T20:33:53.282Z,9.22
2023-01-13T20:36:55.873Z,9.27
2023-01-13T20:40:01.876Z,9.12
2023-01-13T20:43:04.546Z,9.21
2023-01-13T20:46:07.361Z,9.03
2023-01-13T20:49:12.632Z,9.30
2023-01-13T20:52:14.000Z,9.10
2023-01-13T20:55:16.572Z,9.14
2023-01-13T20:58:17.895Z,9.26
2023-01-13T21:01:23.392Z,9.25
2023-01-13T21:04:27.002Z,9.12
2023-01-13T21:07:28.306Z,9.22
2023-01-13T21:10:29.900Z,9.17
2023-01-13T21:13:50.809Z,9.16
2023-01-13T21:16:52.117Z,9.03
2023-01-13T21:19:55.087Z,9.10
2023-01-13T21:22:56.729Z,9.18
2023-01-13T21:26:01.418Z,9.12
2023-01-13T21:29:03.497Z,8.95
2023-01-13T21:32:06.896Z,8.97
2023-01-13T21:35:10.988Z,9.10
2023-01-13T21:38:14.294Z,9.08
2023-01-13T21:41:36.849Z,9.06
2023-01-13T21:44:56.457Z,9.08
2023-01-13T21:47:59.063Z,8.90
2023-01-13T21:51:01.031Z,8.77
2023-01-13T21:54:03.843Z,8.86
2023-01-13T21:57:05.105Z,8.97
2023-01-13T22:00:09.463Z,8.98
2023-01-13T22:03:14.465Z,8.86
2023-01-13T22:06:16.763Z,8.67
2023-01-13T22:09:19.372Z,8.76
2023-01-13T22:12:23.322Z,8.83
2023-01-13T22:15:27.536Z,8.77
2023-01-13T22:18:28.846Z,8.87
2023-01-13T22:21:32.365Z,8.88
2023-01-13T22:24:35.256Z,8.70
2023-01-13T22:27:41.244Z,8.83
2023-01-13T22:30:42.525Z,8.89
2023-01-13T22:33:47.502Z,8.75
2023-01-13T22:36:49.554Z,8.85
2023-01-13T22:39:52.206Z,8.92
2023-01-13T22:42:53.486Z,8.78
2023-01-13T22:45:59.817Z,8.96
2023-01-13T22:49:01.478Z,8.91
2023-01-13T22:52:06.368Z,8.87
2023-01-13T22:55:09.492Z,8.84
2023-01-13T22:58:10.839Z,8.97
2023-01-13T23:01:17.685Z,9.02
2023-01-13T23:04:19.452Z,8.89
2023-01-13T23:07:22.896Z,8.80
2023-01-13T23:10:24.219Z,8.95
2023-01-13T23:13:26.813Z,8.88
2023-01-13T23:16:29.676Z,8.90
2023-01-13T23:19:32.909Z,8.72
2023-01-13T23:22:37.811Z,8.80
2023-01-13T23:25:41.127Z,8.70
2023-01-13T23:28:43.697Z,8.72
2023-01-13T23:31:46.239Z,8.75
2023-01-13T23:34:48.828Z,8.67
2023-01-13T23:37:52.043Z,8.80
2023-01-13T23:40:54.882Z,8.78
2023-01-13T23:43:59.372Z,8.62
2023-01-13T23:47:00.855Z,8.58
2023-01-13T23:50:03.445Z,8.63
2023-01-13T23:56:29.521Z,8.70
2023-01-13T23:59:32.052Z,8.52
